Latest Weather Observations for Hindmarsh Island

IDS60901

Issued at 9:41 am CST Saturday 21 April 2018 (issued every 10 minutes, with the page automatically refreshed every 10 minutes)

About weather observations | Map of Adelaide area stations | Latest observations for Adelaide area | Other Formats
Station Details ID: 023894 Name: HINDMARSH ISLAND AWS Lat: -35.52 Lon: 138.82 Height: 11.0 m
Data from the previous 72 hours. | See also: Recent months at Hindmarsh Island
Date/Time
CST
Temp
°C
App
Temp
°C
Dew
Point
°C
Rel
Hum
%
Delta-T
°C
Wind Press
QNH
hPa
Press
MSL
hPa
Rain since
9am
mm
Dir  Spd
km/h
Gust
km/h
Spd
kts
Gust
kts
21/09:30am 22.4 20.0 14.5 61 4.6 NNE 20 28 11 15 1020.8 1020.8 0.0
21/09:00am 21.1 18.0 14.5 66 3.8 NNE 24 30 13 16 1020.9 1020.9 0.4
21/08:30am 19.9 17.9 14.9 73 2.9 NNE 19 26 10 14 1021.0 1021.0 0.4
21/08:00am 19.7 19.0 15.4 76 2.5 NNE 13 19 7 10 1020.8 1020.8 0.4
21/07:30am 18.5 18.2 15.4 82 1.8 NNE 11 13 6 7 1020.8 1020.8 0.4
21/07:00am 18.6 18.6 15.3 81 1.9 ENE 9 13 5 7 1021.0 1021.0 0.4
21/06:30am 19.1 19.2 15.6 80 2.1 W 9 13 5 7 1021.6 1021.6 0.4
21/06:00am 19.3 16.9 15.4 78 2.3 SSW 22 28 12 15 1021.2 1021.2 0.4
21/05:30am 17.8 17.6 13.7 77 2.3 SW 7 11 4 6 1020.1 1020.1 0.4
21/05:00am 18.0 17.2 13.9 77 2.3 ESE 11 13 6 7 1019.0 1019.0 0.4
21/04:30am 18.7 18.0 14.2 75 2.6 E 11 15 6 8 1019.3 1019.3 0.4
21/04:00am 18.8 16.6 14.3 75 2.6 S 19 26 10 14 1019.3 1019.3 0.4
21/03:30am 18.8 18.7 13.2 70 3.2 NE 6 13 3 7 1018.5 1018.5 0.4
21/03:00am 18.3 16.1 13.2 72 2.9 NE 17 24 9 13 1017.8 1017.8 0.4
21/02:30am 18.7 17.1 14.0 74 2.7 E 15 20 8 11 1018.4 1018.4 0.2
21/02:00am 18.7 16.1 14.8 78 2.3 ESE 22 26 12 14 1017.9 1017.9 0.2
21/01:54am 18.6 16.2 14.5 77 2.4 E 20 24 11 13 1017.7 1017.7 0.2
21/01:30am 20.0 19.2 13.9 68 3.5 NNE 11 19 6 10 1019.7 1019.7 0.2
21/01:00am 20.5 19.1 13.5 64 4.0 WNW 13 17 7 9 1020.5 1020.5 0.2
21/12:30am 21.4 18.2 13.1 59 4.7 SW 22 28 12 15 1019.9 1019.9 0.2
21/12:00am 22.7 16.6 11.7 49 6.2 WSW 35 54 19 29 1019.1 1019.1 0.2
 
Date/Time
CST
Temp
°C
App
Temp
°C
Dew
Point
°C
Rel
Hum
%
Delta-T
°C
Wind Press
QNH
hPa
Press
MSL
hPa
Rain since
9am
mm
Dir  Spd
km/h
Gust
km/h
Spd
kts
Gust
kts
20/11:39pm 22.9 17.9 12.2 51 6.1 WSW 30 52 16 28 1018.5 1018.5 0.2
20/11:30pm 20.1 17.6 11.1 56 4.9 NW 15 37 8 20 1018.7 1018.7 0.2
20/11:00pm 20.7 18.6 9.9 50 5.8 N 11 15 6 8 1017.3 1017.3 0.2
20/10:30pm 20.7 18.3 9.9 50 5.8 N 13 15 7 8 1017.3 1017.3 0.2
20/10:00pm 19.9 17.1 10.0 53 5.3 N 15 19 8 10 1017.2 1017.2 0.2
20/09:30pm 20.3 17.6 10.4 53 5.4 N 15 19 8 10 1017.2 1017.2 0.2
20/09:00pm 21.9 18.1 9.8 46 6.5 NNE 20 26 11 14 1016.8 1016.8 0.2
20/08:30pm 21.2 18.1 10.4 50 5.9 N 17 20 9 11 1017.1 1017.1 0.2
20/08:00pm 21.5 18.9 9.4 46 6.5 NE 13 15 7 8 1017.1 1017.1 0.2
20/07:30pm 22.3 20.9 9.5 44 6.9 ENE 7 11 4 6 1017.3 1017.3 0.2
20/07:00pm 21.2 18.3 9.8 48 6.1 E 15 17 8 9 1016.9 1016.9 0.2
20/06:30pm 22.5 20.2 10.3 46 6.7 E 13 13 7 7 1016.9 1016.9 0.2
20/06:00pm 23.2 20.7 12.2 50 6.2 ESE 17 19 9 10 1016.6 1016.6 0.2
20/05:30pm 26.1 25.0 10.7 38 8.6 ENE 7 9 4 5 1016.4 1016.4 0.2
20/05:00pm 27.5 26.0 9.3 32 10.0 NE 7 9 4 5 1016.2 1016.2 0.2
20/04:30pm 26.4 25.5 11.3 39 8.6 NE 7 9 4 5 1016.2 1016.2 0.2
20/04:00pm 26.5 25.1 11.0 38 8.8 SSW 9 11 5 6 1016.2 1016.2 0.2
20/03:30pm 25.9 24.9 12.4 43 7.8 SW 9 13 5 7 1016.3 1016.3 0.2
20/03:00pm 25.8 21.9 10.8 39 8.4 SW 22 26 12 14 1016.5 1016.5 0.2
20/02:30pm 29.9 27.2 7.2 24 12.2 WNW 11 15 6 8 1016.2 1016.2 0.2
20/02:00pm 30.2 27.1 7.4 24 12.4 NNW 13 20 7 11 1015.9 1015.9 0.2
20/01:30pm 30.0 25.7 7.2 24 12.3 N 19 26 10 14 1015.8 1015.8 0.2
20/01:00pm 30.3 26.0 6.9 23 12.6 NNE 19 26 10 14 1016.1 1016.1 0.2
20/12:30pm 30.3 25.5 5.6 21 13.0 NNE 20 28 11 15 1016.4 1016.4 0.2
20/12:00pm 30.0 25.7 7.2 24 12.3 N 19 26 10 14 1017.0 1017.0 0.2
20/11:30am 27.8 23.6 7.6 28 10.8 NNE 19 26 10 14 1017.3 1017.3 0.2
20/11:00am 27.5 23.9 8.4 30 10.4 N 17 22 9 12 1017.6 1017.6 0.2
20/10:30am 24.7 23.2 10.6 41 7.8 N 9 11 5 6 1018.3 1018.3 0.0
20/10:00am 22.2 21.5 11.9 52 5.8 N 7 11 4 6 1018.4 1018.4 0.0
20/09:30am 19.7 19.0 11.5 59 4.5 NNE 6 11 3 6 1018.7 1018.7 0.0
20/09:00am 20.0 17.6 10.1 53 5.3 NE 13 19 7 10 1018.5 1018.5 0.0
20/08:30am 18.5 16.6 10.6 60 4.2 NE 11 15 6 8 1018.6 1018.6 0.0
20/08:00am 17.7 14.4 11.5 67 3.4 N 20 26 11 14 1018.3 1018.3 0.0
20/07:30am 16.8 13.7 10.4 66 3.4 NNE 17 24 9 13 1017.7 1017.7 0.0
20/07:00am 15.5 14.1 10.9 74 2.4 E 9 13 5 7 1017.6 1017.6 0.0
20/06:30am 15.2 12.9 10.4 73 2.5 NNE 13 17 7 9 1017.3 1017.3 0.0
20/06:00am 15.3 13.3 10.3 72 2.6 NNE 11 22 6 12 1017.2 1017.2 0.0
20/05:30am 15.8 12.6 9.9 68 3.1 NNE 17 22 9 12 1016.9 1016.9 0.0
20/05:00am 15.9 12.2 10.0 68 3.1 NNE 20 24 11 13 1016.8 1016.8 0.0
20/04:30am 15.7 12.0 10.2 70 2.9 N 20 24 11 13 1016.6 1016.6 0.0
20/04:00am 16.4 13.0 10.7 69 3.0 NNE 19 24 10 13 1016.4 1016.4 0.0
20/03:30am 16.6 13.2 10.7 68 3.1 NNE 19 22 10 12 1016.4 1016.4 0.0
20/03:00am 16.6 14.1 10.9 69 3.0 NNE 15 20 8 11 1016.8 1016.8 0.0
20/02:30am 16.4 13.7 11.6 73 2.6 N 17 20 9 11 1017.0 1017.0 0.0
20/02:00am 15.9 13.0 10.9 72 2.7 N 17 19 9 10 1017.1 1017.1 0.0
20/01:30am 15.8 13.7 11.0 73 2.6 N 13 17 7 9 1017.2 1017.2 0.0
20/01:00am 15.6 13.6 11.4 76 2.3 NNE 13 17 7 9 1016.9 1016.9 0.0
20/12:30am 16.2 15.3 11.4 73 2.6 N 7 9 4 5 1017.0 1017.0 0.0
20/12:00am 14.8 13.0 11.0 78 2.0 NE 11 13 6 7 1017.0 1017.0 0.0
 
Date/Time
CST
Temp
°C
App
Temp
°C
Dew
Point
°C
Rel
Hum
%
Delta-T
°C
Wind Press
QNH
hPa
Press
MSL
hPa
Rain since
9am
mm
Dir  Spd
km/h
Gust
km/h
Spd
kts
Gust
kts
19/11:30pm 16.1 14.6 10.6 70 2.9 N 9 11 5 6 1017.2 1017.2 0.0
19/11:00pm 16.6 14.6 11.5 72 2.8 NNW 13 15 7 8 1017.2 1017.2 0.0
19/10:30pm 17.3 16.0 11.3 68 3.2 NE 9 11 5 6 1017.1 1017.1 0.0
19/10:00pm 16.5 15.1 11.0 70 2.9 NE 9 11 5 6 1017.3 1017.3 0.0
19/09:30pm 18.1 18.8 12.3 69 3.2 CALM 0 0 0 0 1017.4 1017.4 0.0
19/09:00pm 17.9 16.7 11.7 67 3.4 NW 9 13 5 7 1017.4 1017.4 0.0
19/08:30pm 18.3 16.6 11.1 63 3.9 ENE 11 15 6 8 1016.9 1016.9 0.0
19/08:00pm 18.4 17.7 11.9 66 3.6 N 7 9 4 5 1016.6 1016.6 0.0
19/07:30pm 18.4 17.5 12.6 69 3.2 NNW 9 11 5 6 1016.6 1016.6 0.0
19/07:00pm 18.7 18.2 12.5 67 3.5 NNE 7 9 4 5 1016.2 1016.2 0.0
19/06:30pm 18.9 17.7 12.9 68 3.4 ESE 11 13 6 7 1015.9 1015.9 0.0
19/06:00pm 19.3 17.5 13.3 68 3.4 ESE 15 20 8 11 1015.7 1015.7 0.0
19/05:30pm 20.3 17.8 14.0 67 3.6 SE 20 24 11 13 1015.4 1015.4 0.0
19/05:00pm 21.1 18.5 13.8 63 4.2 SE 20 22 11 12 1015.4 1015.4 0.0
19/04:30pm 21.7 18.7 13.6 60 4.7 SE 22 24 12 13 1015.5 1015.5 0.0
19/04:00pm 22.7 19.6 13.5 56 5.3 SE 22 24 12 13 1015.4 1015.4 0.0
19/03:30pm 23.6 20.4 13.2 52 6.0 SE 22 24 12 13 1015.3 1015.3 0.0
19/03:00pm 24.0 20.7 11.7 46 6.9 SE 20 24 11 13 1015.2 1015.2 0.0
19/02:30pm 24.2 21.2 12.5 48 6.7 SE 20 24 11 13 1015.2 1015.2 0.0
19/02:00pm 24.1 20.6 12.1 47 6.8 SE 22 24 12 13 1015.2 1015.2 0.0
19/01:30pm 24.4 20.2 11.0 43 7.5 SE 24 26 13 14 1015.3 1015.3 0.0
19/01:00pm 24.5 21.7 12.5 47 6.9 SE 19 22 10 12 1015.5 1015.5 0.0
19/12:30pm 25.3 22.1 11.8 43 7.7 SE 20 22 11 12 1015.8 1015.8 0.0
19/12:00pm 24.4 21.8 12.0 46 7.0 SE 17 19 9 10 1016.1 1016.1 0.0
19/11:30am 24.6 22.7 11.9 45 7.2 S 13 15 7 8 1016.4 1016.4 0.0
19/11:00am 24.7 23.1 11.6 44 7.4 SSE 11 13 6 7 1016.6 1016.6 0.0
19/10:30am 23.7 22.3 9.7 41 7.6 S 7 9 4 5 1016.9 1016.9 0.0
19/10:00am 24.1 23.4 10.0 41 7.7 NNW 4 7 2 4 1017.0 1017.0 0.0
19/09:30am 22.2 21.7 10.7 48 6.3 N 4 7 2 4 1017.2 1017.2 0.0
19/09:00am 19.7 18.2 10.4 55 5.0 NE 9 11 5 6 1017.1 1017.1 0.0
19/08:30am 17.9 17.0 10.8 63 3.8 NNE 6 7 3 4 1017.0 1017.0 0.0
19/08:00am 15.8 13.9 10.6 71 2.8 NNE 11 15 6 8 1016.6 1016.6 0.0
19/07:30am 14.6 13.1 10.6 77 2.1 N 9 11 5 6 1016.3 1016.3 0.0
19/07:00am 12.8 10.7 9.8 82 1.5 NNE 11 13 6 7 1015.8 1015.8 0.0
19/06:30am 11.7 9.4 8.9 83 1.4 NE 11 13 6 7 1015.6 1015.6 0.0
19/06:00am 13.5 13.5 9.9 79 1.9 CALM 0 0 0 0 1015.5 1015.5 0.0
19/05:30am 14.0 12.9 9.8 76 2.2 N 6 9 3 5 1015.1 1015.1 0.0
19/05:00am 13.8 11.8 10.0 78 2.0 N 11 15 6 8 1015.0 1015.0 0.0
19/04:30am 13.1 12.7 9.9 81 1.6 NNE 2 9 1 5 1014.9 1014.9 0.0
19/04:00am 13.3 12.0 10.1 81 1.7 NNE 7 9 4 5 1014.7 1014.7 0.0
19/03:30am 13.7 12.1 10.3 80 1.8 NNE 9 11 5 6 1014.7 1014.7 0.0
19/03:00am 13.9 12.7 10.3 79 1.9 NNE 7 9 4 5 1014.9 1014.9 0.0
19/02:30am 14.2 12.7 10.4 78 2.0 N 9 13 5 7 1015.3 1015.3 0.0
19/02:00am 14.5 12.2 10.5 77 2.1 N 13 13 7 7 1015.5 1015.5 0.0
19/01:30am 14.0 12.4 10.2 78 2.0 NNE 9 11 5 6 1015.7 1015.7 0.0
19/01:00am 14.5 12.3 10.7 78 2.0 N 13 17 7 9 1015.7 1015.7 0.0
19/12:30am 14.4 12.9 10.6 78 2.0 N 9 13 5 7 1015.8 1015.8 0.0
19/12:00am 15.0 13.3 11.2 78 2.0 N 11 13 6 7 1016.0 1016.0 0.0
 
Date/Time
CST
Temp
°C
App
Temp
°C
Dew
Point
°C
Rel
Hum
%
Delta-T
°C
Wind Press
QNH
hPa
Press
MSL
hPa
Rain since
9am
mm
Dir  Spd
km/h
Gust
km/h
Spd
kts
Gust
kts
18/11:30pm 15.5 14.2 11.3 76 2.2 N 9 11 5 6 1016.2 1016.2 0.0
18/11:00pm 15.9 16.5 11.9 77 2.2 CALM 0 9 0 5 1016.5 1016.5 0.0
18/10:30pm 15.9 15.0 11.5 75 2.4 NNE 7 9 4 5 1016.6 1016.6 0.0
18/10:00pm 16.7 17.5 12.5 76 2.3 CALM 0 0 0 0 1016.6 1016.6 0.0
18/09:30pm 17.5 18.4 12.8 74 2.6 CALM 0 0 0 0 1016.5 1016.5 0.0
18/09:00pm 18.2 19.2 13.3 73 2.8 CALM 0 0 0 0 1016.4 1016.4 0.0
18/08:30pm 17.9 17.3 11.7 67 3.4 WSW 6 7 3 4 1016.4 1016.4 0.0
18/08:00pm 18.1 16.7 11.0 63 3.8 W 9 11 5 6 1016.4 1016.4 0.0
18/07:30pm 17.8 16.7 9.9 60 4.2 NNE 6 11 3 6 1016.6 1016.6 0.0
18/07:00pm 18.9 16.9 8.8 52 5.3 E 9 9 5 5 1016.5 1016.5 0.0
18/06:30pm 19.5 17.9 8.8 50 5.6 ESE 7 9 4 5 1016.2 1016.2 0.0
18/06:00pm 20.0 18.5 10.4 54 5.2 ESE 9 11 5 6 1016.0 1016.0 0.0
18/05:30pm 21.2 18.5 7.4 41 7.1 E 11 13 6 7 1015.8 1015.8 0.0
18/05:00pm 23.1 20.3 6.8 35 8.4 NE 11 13 6 7 1015.6 1015.6 0.0
18/04:30pm 24.1 20.4 6.4 32 9.1 E 15 19 8 10 1015.5 1015.5 0.0
18/04:00pm 23.4 19.3 6.2 33 8.8 E 17 22 9 12 1015.6 1015.6 0.0
18/03:30pm 23.8 19.1 5.2 30 9.3 ENE 19 24 10 13 1015.6 1015.6 0.0
18/03:00pm 23.7 18.8 5.1 30 9.3 ENE 20 26 11 14 1015.5 1015.5 0.0
18/02:30pm 24.8 19.1 5.1 28 9.9 ENE 24 32 13 17 1015.6 1015.6 0.0
18/02:00pm 23.8 18.1 4.7 29 9.5 ENE 24 28 13 15 1015.9 1015.9 0.0
18/01:30pm 23.7 19.0 5.1 30 9.3 ENE 19 28 10 15 1016.3 1016.3 0.0
18/01:00pm 23.4 18.5 5.3 31 9.1 NE 20 26 11 14 1017.0 1017.0 0.0
18/12:30pm 23.9 19.1 5.8 31 9.2 ENE 20 26 11 14 1017.5 1017.5 0.0
18/12:00pm 22.6 18.2 4.6 31 8.9 NE 17 22 9 12 1018.0 1018.0 0.0
18/11:30am 22.2 18.3 5.2 33 8.4 NE 15 20 8 11 1018.6 1018.6 0.0
18/11:00am 19.7 15.3 4.6 37 7.3 NE 17 20 9 11 1019.2 1019.2 0.0
18/10:30am 18.6 14.2 6.4 45 6.0 NE 19 24 10 13 1019.5 1019.5 0.0
18/10:00am 16.3 11.9 6.4 52 4.8 NE 19 24 10 13 1019.8 1019.8 0.0

Latest Capital City Observations: Canberra | Sydney | Melbourne | Brisbane | Adelaide | Perth | Hobart | Darwin

Other Formats:

Comma delimited format used in spreadsheet applications
http://www.bom.gov.au/fwo/IDS60901/IDS60901.94677.axf

JavaScript Object Notation format (JSON) in row-major order
http://www.bom.gov.au/fwo/IDS60901/IDS60901.94677.json